Time;durP1;ratioP1;P1;durP2;ratioP2;P2;SDS_P1;SDS_P2;PMS_P1;PMS_P2;Temp;Humidity;BMP_temperature;BMP_pressure;BME280_temperature;BME280_humidity;BME280_pressure;Samples;Min_cycle;Max_cycle;Signal;HPM_P1;HPM_P2
2022/10/14 00:01:16;;;;;;;12.05;4.63;;;11.00;99.90;;;;;;5019067;28;20441;-58
2022/10/14 00:03:42;;;;;;;8.45;5.30;;;11.00;99.90;;;;;;5011998;28;20489;-58
2022/10/14 00:06:14;;;;;;;6.68;4.28;;;11.00;99.90;;;;;;5011641;28;20104;-58
2022/10/14 00:08:40;;;;;;;7.38;4.80;;;10.90;99.90;;;;;;5002768;28;20113;-59
2022/10/14 00:11:11;;;;;;;8.20;4.75;;;10.90;99.90;;;;;;5019860;28;20429;-59
2022/10/14 00:13:38;;;;;;;9.15;4.93;;;10.80;99.90;;;;;;5012212;28;20117;-58
2022/10/14 00:16:04;;;;;;;7.72;4.40;;;10.80;99.90;;;;;;5020155;28;20077;-59
2022/10/14 00:18:30;;;;;;;7.90;4.57;;;10.70;99.90;;;;;;5020132;28;20037;-58
2022/10/14 00:21:00;;;;;;;7.10;4.32;;;10.70;99.90;;;;;;5014479;28;20034;-58
2022/10/14 00:23:26;;;;;;;7.53;4.82;;;10.60;99.90;;;;;;5015462;28;20022;-58
2022/10/14 00:25:52;;;;;;;9.65;4.72;;;10.60;99.90;;;;;;5012945;28;20117;-59
2022/10/14 00:28:18;;;;;;;8.23;4.55;;;10.60;99.90;;;;;;5010695;28;20120;-60
2022/10/14 00:31:00;;;;;;;8.30;4.75;;;10.60;99.90;;;;;;5005267;28;20033;-58
2022/10/14 00:33:26;;;;;;;;;;;10.60;99.90;;;;;;5014028;28;20041;-58
2022/10/14 00:35:54;;;;;;;7.40;4.22;;;10.60;99.90;;;;;;5011091;28;20059;-58
2022/10/14 00:38:19;;;;;;;10.63;4.30;;;10.60;99.90;;;;;;5012236;28;20053;-59
2022/10/14 00:40:45;;;;;;;8.40;4.80;;;10.60;99.90;;;;;;5008700;28;20857;-59
2022/10/14 00:43:15;;;;;;;11.02;4.55;;;10.60;99.90;;;;;;5010606;28;20038;-57
2022/10/14 00:45:41;;;;;;;11.02;5.07;;;10.70;99.90;;;;;;5015187;28;20037;-58
2022/10/14 00:48:08;;;;;;;11.20;4.93;;;10.60;99.90;;;;;;5014306;28;20034;-57
2022/10/14 00:50:35;;;;;;;7.07;4.45;;;10.60;99.90;;;;;;5015865;28;20022;-58
2022/10/14 00:53:02;;;;;;;10.85;5.82;;;10.70;99.90;;;;;;5010465;28;20026;-58
2022/10/14 00:55:28;;;;;;;10.25;4.30;;;10.60;99.90;;;;;;5012898;28;20409;-58
2022/10/14 00:57:53;;;;;;;9.65;5.03;;;10.70;99.90;;;;;;5015300;28;20034;-58
2022/10/14 01:00:19;;;;;;;10.82;5.22;;;10.60;99.90;;;;;;5013716;28;20080;-58
2022/10/14 01:02:46;;;;;;;9.75;5.13;;;10.60;99.90;;;;;;5013785;28;20029;-58
2022/10/14 01:05:14;;;;;;;15.25;5.18;;;10.70;99.90;;;;;;5010768;28;20036;-57
2022/10/14 01:07:55;;;;;;;9.27;4.57;;;10.70;99.90;;;;;;5014479;28;20029;-58
2022/10/14 01:10:42;;;;;;;8.03;4.13;;;10.70;99.90;;;;;;5012241;28;20397;-58
2022/10/14 01:13:30;;;;;;;9.25;4.45;;;10.70;99.90;;;;;;5003999;28;20032;-58
2022/10/14 01:16:13;;;;;;;7.40;4.10;;;10.60;99.90;;;;;;5011172;28;20045;-58
2022/10/14 01:18:54;;;;;;;12.23;5.13;;;10.60;99.90;;;;;;4999956;28;20033;-58
2022/10/14 01:21:26;;;;;;;11.25;5.43;;;10.60;99.90;;;;;;5009970;28;20034;-58
2022/10/14 01:24:10;;;;;;;9.73;4.43;;;10.60;99.90;;;;;;5014905;28;20022;-57
2022/10/14 01:26:54;;;;;;;8.52;4.68;;;10.70;99.90;;;;;;5015570;28;20026;-59
2022/10/14 01:29:57;;;;;;;10.10;5.05;;;10.70;99.90;;;;;;5011827;28;20037;-59
2022/10/14 01:32:35;;;;;;;9.75;4.72;;;10.70;99.90;;;;;;4998977;28;20121;-59
2022/10/14 01:35:03;;;;;;;10.57;5.70;;;10.60;99.90;;;;;;5008897;28;20079;-58
2022/10/14 01:37:31;;;;;;;10.88;4.78;;;10.60;99.90;;;;;;5014863;28;20018;-58
2022/10/14 01:40:02;;;;;;;11.25;4.53;;;10.60;99.90;;;;;;5015409;28;20036;-58
2022/10/14 01:42:33;;;;;;;11.00;4.30;;;10.60;99.90;;;;;;5004597;28;20026;-59
2022/10/14 01:45:06;;;;;;;7.63;4.28;;;10.60;99.90;;;;;;5011322;28;20034;-59
2022/10/14 01:47:35;;;;;;;8.65;4.78;;;10.50;99.90;;;;;;5011992;28;20112;-58
2022/10/14 01:50:12;;;;;;;8.32;4.10;;;10.50;99.90;;;;;;5008499;28;20022;-59
2022/10/14 01:52:44;;;;;;;8.68;4.38;;;10.50;99.90;;;;;;5004782;28;20029;-59
2022/10/14 01:55:16;;;;;;;7.65;4.03;;;10.50;99.90;;;;;;5012002;28;20142;-59
2022/10/14 01:57:44;;;;;;;7.97;4.35;;;10.50;99.90;;;;;;5013126;28;20359;-58
2022/10/14 02:00:10;;;;;;;10.23;4.72;;;10.40;99.90;;;;;;5013432;28;20054;-59
2022/10/14 02:02:38;;;;;;;6.60;4.60;;;10.50;99.90;;;;;;5010039;28;20030;-58
2022/10/14 02:05:10;;;;;;;10.00;4.30;;;10.40;99.90;;;;;;5009622;28;20022;-59
2022/10/14 02:07:45;;;;;;;11.88;4.22;;;10.40;99.90;;;;;;5004658;28;20057;-58
2022/10/14 02:10:10;;;;;;;10.73;5.32;;;10.40;99.90;;;;;;5015962;28;20033;-57
2022/10/14 02:12:42;;;;;;;9.23;5.05;;;10.40;99.90;;;;;;5011448;28;20025;-57
2022/10/14 02:15:28;;;;;;;7.28;4.22;;;10.50;99.90;;;;;;5015371;28;20057;-60
2022/10/14 02:18:13;;;;;;;8.68;4.55;;;10.50;99.90;;;;;;5006303;28;20050;-59
2022/10/14 02:20:57;;;;;;;10.52;4.97;;;10.50;99.90;;;;;;5000725;28;20030;-59
2022/10/14 02:23:28;;;;;;;11.82;5.25;;;10.50;99.90;;;;;;5011297;28;20501;-58
2022/10/14 02:25:55;;;;;;;10.20;5.03;;;10.50;99.90;;;;;;5007581;28;20041;-59
2022/10/14 02:28:25;;;;;;;9.73;4.95;;;10.50;99.90;;;;;;5010360;28;20549;-59
2022/10/14 02:30:55;;;;;;;8.05;3.67;;;10.40;99.90;;;;;;5008471;28;20034;-59
2022/10/14 02:33:23;;;;;;;8.18;4.75;;;10.30;99.90;;;;;;5013065;28;20030;-60
2022/10/14 02:35:50;;;;;;;9.55;5.05;;;10.30;99.90;;;;;;5009894;28;20033;-58
2022/10/14 02:38:19;;;;;;;7.70;4.15;;;10.30;99.90;;;;;;5008827;28;20050;-58
2022/10/14 02:40:49;;;;;;;11.07;5.05;;;10.40;99.90;;;;;;5017014;28;20036;-57
2022/10/14 02:43:15;;;;;;;9.32;4.25;;;10.30;99.90;;;;;;5006170;28;20054;-59
2022/10/14 02:45:43;;;;;;;8.15;4.65;;;10.30;99.90;;;;;;5015302;28;20030;-58
2022/10/14 02:48:09;;;;;;;9.02;5.30;;;10.30;99.90;;;;;;5011223;28;20045;-57
2022/10/14 02:50:35;;;;;;;9.05;4.63;;;10.30;99.90;;;;;;5012552;28;20397;-58
2022/10/14 02:53:00;;;;;;;9.45;4.80;;;10.30;99.90;;;;;;5008455;28;20113;-59
2022/10/14 02:55:26;;;;;;;8.57;4.60;;;10.20;99.90;;;;;;5001581;28;20380;-59
2022/10/14 02:57:52;;;;;;;10.13;5.03;;;10.20;99.90;;;;;;5016452;28;20159;-58
2022/10/14 03:00:18;;;;;;;11.27;5.30;;;10.30;99.90;;;;;;5015342;28;20087;-59
2022/10/14 03:02:43;;;;;;;8.02;4.75;;;10.30;99.90;;;;;;5005622;28;20104;-59
2022/10/14 03:05:09;;;;;;;9.07;4.65;;;10.30;99.90;;;;;;5012290;28;20486;-59
2022/10/14 03:07:35;;;;;;;9.10;4.55;;;10.30;99.90;;;;;;5016268;28;20030;-58
2022/10/14 03:10:01;;;;;;;10.73;4.55;;;10.30;99.90;;;;;;5016212;28;20030;-57
2022/10/14 03:12:27;;;;;;;10.18;4.35;;;10.20;99.90;;;;;;5016957;28;20022;-60
2022/10/14 03:14:53;;;;;;;10.57;4.95;;;10.10;99.90;;;;;;5013397;28;20393;-58
2022/10/14 03:17:19;;;;;;;8.40;4.43;;;10.10;99.90;;;;;;5019401;28;20044;-57
2022/10/14 03:19:44;;;;;;;11.35;5.18;;;10.00;99.90;;;;;;5014583;28;20418;-57
2022/10/14 03:22:10;;;;;;;8.90;4.75;;;10.00;99.90;;;;;;5010025;28;20034;-58
2022/10/14 03:24:36;;;;;;;8.38;5.13;;;10.00;99.90;;;;;;5017044;28;20109;-58
2022/10/14 03:27:02;;;;;;;8.75;4.75;;;10.00;99.90;;;;;;5019036;28;20021;-58
2022/10/14 03:29:27;;;;;;;13.20;5.60;;;10.00;99.90;;;;;;5011131;28;20485;-58
2022/10/14 03:31:53;;;;;;;11.10;5.20;;;10.00;99.90;;;;;;5016736;28;20092;-58
2022/10/14 03:34:19;;;;;;;11.15;5.75;;;10.00;99.90;;;;;;5014095;28;20034;-58
2022/10/14 03:36:44;;;;;;;10.52;5.45;;;10.10;99.90;;;;;;5012123;28;20045;-58
2022/10/14 03:39:10;;;;;;;10.45;5.47;;;10.20;99.90;;;;;;5013873;28;20034;-59
2022/10/14 03:41:36;;;;;;;12.35;6.18;;;10.10;99.90;;;;;;5011630;28;20032;-59
2022/10/14 03:44:02;;;;;;;13.43;5.95;;;10.10;99.90;;;;;;4993683;23;20046;-59
2022/10/14 03:46:27;;;;;;;14.70;6.28;;;10.00;99.90;;;;;;4979399;28;20109;-59
2022/10/14 03:48:53;;;;;;;12.45;5.97;;;10.20;99.90;;;;;;4981126;28;20042;-59
2022/10/14 03:51:18;;;;;;;13.55;6.72;;;10.20;99.90;;;;;;4979630;28;20134;-58
2022/10/14 03:53:44;;;;;;;11.48;5.40;;;10.20;99.90;;;;;;4986902;28;20034;-59
2022/10/14 03:56:10;;;;;;;12.27;5.50;;;10.10;99.90;;;;;;4989586;28;20494;-59
2022/10/14 03:58:36;;;;;;;10.43;5.15;;;10.10;99.90;;;;;;4980451;28;20086;-58
2022/10/14 04:01:01;;;;;;;11.38;6.68;;;10.10;99.90;;;;;;4980288;28;20031;-58
2022/10/14 04:03:27;;;;;;;12.43;5.68;;;10.10;99.90;;;;;;4982205;28;20031;-58
2022/10/14 04:05:53;;;;;;;13.38;5.68;;;10.10;99.90;;;;;;4989915;28;20030;-58
2022/10/14 04:08:18;;;;;;;13.70;5.70;;;10.10;99.90;;;;;;4984680;28;20035;-59
2022/10/14 04:10:44;;;;;;;12.60;6.00;;;10.10;99.90;;;;;;4982554;28;20058;-59
2022/10/14 04:13:10;;;;;;;12.65;6.25;;;10.10;99.90;;;;;;4986455;28;20520;-58
2022/10/14 04:15:36;;;;;;;11.05;5.70;;;10.10;99.90;;;;;;4984495;28;20039;-58
2022/10/14 04:18:02;;;;;;;11.45;5.57;;;10.20;99.90;;;;;;4993060;28;20061;-61
2022/10/14 04:20:28;;;;;;;13.75;5.95;;;10.20;99.90;;;;;;4973750;28;20055;-61
2022/10/14 04:22:53;;;;;;;12.60;5.28;;;10.20;99.90;;;;;;4978111;28;20030;-60
2022/10/14 04:25:19;;;;;;;12.35;5.75;;;10.20;99.90;;;;;;4983041;28;20030;-60
2022/10/14 04:27:45;;;;;;;11.63;5.90;;;10.20;99.90;;;;;;4986755;28;20019;-60
2022/10/14 04:30:11;;;;;;;11.85;6.13;;;10.20;99.90;;;;;;4985209;28;20069;-60
2022/10/14 04:32:36;;;;;;;13.15;5.22;;;10.20;99.90;;;;;;4982839;28;20030;-60
2022/10/14 04:35:04;;;;;;;13.75;5.93;;;10.20;99.90;;;;;;4985097;28;20029;-60
2022/10/14 04:37:30;;;;;;;15.05;6.40;;;10.20;99.90;;;;;;4981177;28;20069;-60
2022/10/14 04:39:55;;;;;;;12.57;6.40;;;10.20;99.90;;;;;;4982036;28;20027;-60
2022/10/14 04:42:21;;;;;;;11.88;5.88;;;10.20;99.90;;;;;;4981187;28;20050;-60
2022/10/14 04:44:47;;;;;;;11.25;5.95;;;10.30;99.90;;;;;;4977886;28;20129;-59
2022/10/14 04:47:13;;;;;;;12.02;5.97;;;10.20;99.90;;;;;;4974292;28;20084;-59
2022/10/14 04:49:38;;;;;;;13.13;6.43;;;10.20;99.90;;;;;;4969107;28;20392;-59
2022/10/14 04:52:04;;;;;;;10.60;6.20;;;10.30;99.90;;;;;;4980673;28;20018;-58
2022/10/14 04:54:30;;;;;;;15.50;6.32;;;10.20;99.90;;;;;;4978354;28;20034;-57
2022/10/14 04:56:55;;;;;;;11.77;6.43;;;10.30;99.90;;;;;;4976408;28;20041;-58
2022/10/14 04:59:21;;;;;;;13.05;6.25;;;10.30;99.90;;;;;;4971175;28;20037;-59
2022/10/14 05:01:47;;;;;;;8.68;4.32;;;10.40;99.90;;;;;;4981113;28;20092;-58
2022/10/14 05:04:13;;;;;;;8.63;5.50;;;10.40;99.90;;;;;;4984786;28;20030;-58
2022/10/14 05:06:39;;;;;;;12.20;5.97;;;10.30;99.90;;;;;;4965606;28;20114;-59
2022/10/14 05:09:05;;;;;;;12.40;5.82;;;10.50;99.90;;;;;;4980136;28;20038;-59
2022/10/14 05:11:31;;;;;;;13.75;5.75;;;10.50;99.90;;;;;;4973841;28;20034;-59
2022/10/14 05:13:57;;;;;;;11.60;5.50;;;10.50;99.90;;;;;;4978785;28;20038;-59
2022/10/14 05:16:23;;;;;;;12.63;5.68;;;10.50;99.90;;;;;;4978931;28;20046;-59
2022/10/14 05:18:49;;;;;;;11.68;5.57;;;10.50;99.90;;;;;;4972034;28;20030;-59
2022/10/14 05:21:14;;;;;;;10.80;6.07;;;10.50;99.90;;;;;;4983627;28;20034;-59
2022/10/14 05:23:40;;;;;;;10.70;5.25;;;10.50;99.90;;;;;;4981657;28;20402;-59
2022/10/14 05:26:06;;;;;;;11.00;5.80;;;10.60;99.90;;;;;;4978233;28;20502;-60
2022/10/14 05:28:31;;;;;;;14.57;6.82;;;10.60;99.90;;;;;;4974875;28;20212;-60
2022/10/14 05:30:57;;;;;;;6.50;4.03;;;10.60;99.90;;;;;;4975262;28;20035;-59
2022/10/14 05:33:23;;;;;;;10.73;5.43;;;10.50;99.90;;;;;;4976970;28;20101;-60
2022/10/14 05:35:48;;;;;;;11.02;5.35;;;10.60;99.90;;;;;;4970201;28;20034;-59
2022/10/14 05:38:14;;;;;;;11.85;5.22;;;10.50;99.90;;;;;;4985237;28;20030;-59
2022/10/14 05:40:40;;;;;;;10.55;5.85;;;10.60;99.90;;;;;;4984255;28;20058;-59
2022/10/14 05:43:06;;;;;;;11.30;4.95;;;10.60;99.90;;;;;;4986297;28;20042;-59
2022/10/14 05:45:31;;;;;;;8.80;5.10;;;10.60;99.90;;;;;;4970898;28;20022;-60
2022/10/14 05:47:57;;;;;;;10.90;5.53;;;10.60;99.90;;;;;;4974627;28;20035;-60
2022/10/14 05:50:23;;;;;;;10.90;5.57;;;10.60;99.90;;;;;;4978556;28;20457;-59
2022/10/14 05:52:49;;;;;;;10.55;5.72;;;10.60;99.90;;;;;;4972836;28;20026;-59
2022/10/14 05:55:15;;;;;;;10.30;5.00;;;10.50;99.90;;;;;;4980859;28;20548;-59
2022/10/14 05:57:43;;;;;;;12.45;5.80;;;10.70;99.90;;;;;;4984529;28;20058;-60
2022/10/14 06:00:09;;;;;;;13.13;5.35;;;10.70;99.90;;;;;;4974331;28;20023;-59
2022/10/14 06:02:35;;;;;;;11.05;5.63;;;10.80;99.90;;;;;;4972516;28;20061;-59
2022/10/14 06:05:01;;;;;;;10.02;6.15;;;10.80;99.90;;;;;;4972171;28;20060;-60
2022/10/14 06:07:27;;;;;;;10.85;5.40;;;10.90;99.90;;;;;;4973194;28;20030;-60
2022/10/14 06:09:52;;;;;;;9.63;6.07;;;10.90;99.90;;;;;;4976951;28;20022;-59
2022/10/14 06:12:18;;;;;;;11.85;5.13;;;10.90;99.90;;;;;;4979587;28;20475;-60
2022/10/14 06:14:44;;;;;;;11.90;6.00;;;10.90;99.90;;;;;;4981950;28;20109;-60
2022/10/14 06:17:09;;;;;;;9.50;5.47;;;11.00;99.90;;;;;;4986785;28;20038;-59
2022/10/14 06:19:35;;;;;;;8.75;5.03;;;11.00;99.90;;;;;;4976533;28;20383;-59
2022/10/14 06:22:01;;;;;;;8.82;4.47;;;10.90;99.90;;;;;;4978193;28;20038;-59
2022/10/14 06:24:26;;;;;;;9.05;4.85;;;10.90;99.90;;;;;;4975090;28;20026;-58
2022/10/14 06:26:52;;;;;;;11.07;5.65;;;10.90;99.90;;;;;;4967963;28;20026;-60
2022/10/14 06:29:18;;;;;;;10.65;4.70;;;10.90;99.90;;;;;;4982375;28;20398;-61
2022/10/14 06:31:43;;;;;;;9.60;5.00;;;10.90;99.90;;;;;;4971622;28;20395;-60
2022/10/14 06:34:09;;;;;;;6.78;4.30;;;10.90;99.90;;;;;;4986665;28;20038;-60
2022/10/14 06:36:35;;;;;;;10.88;5.45;;;10.90;99.90;;;;;;4975609;28;20038;-60
2022/10/14 06:39:03;;;;;;;9.50;4.80;;;11.00;99.90;;;;;;4983648;28;20043;-60
2022/10/14 06:41:29;;;;;;;8.65;5.18;;;10.90;99.90;;;;;;4970374;28;20042;-60
2022/10/14 06:43:54;;;;;;;8.25;4.28;;;11.00;99.90;;;;;;4982367;28;20043;-60
2022/10/14 06:46:20;;;;;;;9.30;4.85;;;11.00;99.90;;;;;;4977037;28;20054;-60
2022/10/14 06:48:46;;;;;;;7.38;4.88;;;11.00;99.90;;;;;;4980250;28;20027;-60
2022/10/14 06:51:11;;;;;;;8.98;5.05;;;11.00;99.90;;;;;;4980924;28;20054;-60
2022/10/14 06:53:38;;;;;;;9.10;5.45;;;11.00;99.90;;;;;;4982359;28;20104;-60
2022/10/14 06:56:05;;;;;;;11.82;5.35;;;11.00;99.90;;;;;;4973465;28;20047;-60
2022/10/14 06:58:32;;;;;;;9.27;5.15;;;11.00;99.90;;;;;;4976369;28;20026;-60
2022/10/14 07:01:02;;;;;;;9.00;5.32;;;11.10;99.90;;;;;;4973149;28;20031;-60
2022/10/14 07:03:28;;;;;;;14.35;4.57;;;11.10;99.90;;;;;;4969515;28;20050;-60
2022/10/14 07:05:53;;;;;;;16.38;5.88;;;11.20;99.90;;;;;;4979266;28;20475;-59
2022/10/14 07:08:19;;;;;;;10.82;5.78;;;11.20;99.90;;;;;;4979481;28;20042;-60
2022/10/14 07:10:46;;;;;;;8.10;4.93;;;11.20;99.90;;;;;;4977403;28;20031;-60
2022/10/14 07:13:12;;;;;;;10.93;5.43;;;11.30;99.90;;;;;;4982604;28;20035;-59
2022/10/14 07:15:38;;;;;;;10.73;5.45;;;11.30;99.90;;;;;;4973319;28;20050;-60
2022/10/14 07:18:05;;;;;;;11.23;5.05;;;11.30;99.90;;;;;;4981330;28;20027;-60
2022/10/14 07:20:32;;;;;;;10.70;6.57;;;11.40;99.90;;;;;;4973512;28;20030;-60
2022/10/14 07:22:58;;;;;;;10.05;5.47;;;11.40;99.90;;;;;;4986247;28;20029;-59
2022/10/14 07:25:23;;;;;;;10.20;5.65;;;11.40;99.90;;;;;;4980901;28;20027;-60
2022/10/14 07:27:51;;;;;;;8.15;5.28;;;11.40;99.90;;;;;;4982804;28;20047;-59
2022/10/14 07:30:17;;;;;;;10.45;5.57;;;11.50;99.90;;;;;;4984093;28;20050;-60
2022/10/14 07:32:43;;;;;;;10.02;5.75;;;11.60;99.90;;;;;;4975327;28;20399;-60
2022/10/14 07:35:08;;;;;;;11.00;6.25;;;11.60;99.90;;;;;;4976264;28;20026;-60
2022/10/14 07:37:34;;;;;;;10.68;6.03;;;11.70;99.90;;;;;;4980381;28;20113;-60
2022/10/14 07:40:00;;;;;;;8.93;4.93;;;11.80;99.90;;;;;;4969387;28;20035;-58
2022/10/14 07:42:26;;;;;;;14.30;5.18;;;11.90;99.90;;;;;;4967887;28;20042;-60
2022/10/14 07:44:53;;;;;;;11.50;6.03;;;11.90;99.90;;;;;;4967844;28;20035;-60
2022/10/14 07:47:19;;;;;;;8.98;5.88;;;11.90;99.90;;;;;;4981540;28;20407;-59
2022/10/14 07:49:44;;;;;;;9.63;5.53;;;12.00;99.90;;;;;;4963717;28;20110;-59
2022/10/14 07:52:10;;;;;;;10.88;6.35;;;12.10;99.90;;;;;;4974175;28;20121;-59
2022/10/14 07:54:36;;;;;;;9.75;5.22;;;12.10;99.90;;;;;;4974300;28;20038;-58
2022/10/14 07:57:02;;;;;;;10.25;4.57;;;12.10;99.90;;;;;;4979908;28;20045;-60
2022/10/14 07:59:27;;;;;;;13.18;5.30;;;12.20;99.90;;;;;;4973410;28;20026;-60
2022/10/14 08:01:55;;;;;;;6.75;5.00;;;12.20;99.90;;;;;;4978890;28;20085;-61
2022/10/14 08:04:21;;;;;;;9.45;5.60;;;12.20;99.90;;;;;;4979174;28;20027;-60
2022/10/14 08:06:47;;;;;;;10.70;5.43;;;12.30;99.90;;;;;;4976000;28;20089;-60
2022/10/14 08:09:13;;;;;;;10.68;4.65;;;12.30;99.90;;;;;;4984215;28;20394;-59
2022/10/14 08:11:39;;;;;;;14.57;5.15;;;12.30;99.90;;;;;;4971850;28;20031;-60
2022/10/14 08:14:05;;;;;;;9.40;5.47;;;12.30;99.90;;;;;;4984641;28;20479;-59
2022/10/14 08:16:33;;;;;;;7.28;4.68;;;12.30;99.90;;;;;;4971100;28;20042;-60
2022/10/14 08:19:03;;;;;;;14.00;6.07;;;12.30;99.90;;;;;;4967230;28;20118;-60
2022/10/14 08:21:29;;;;;;;17.58;5.93;;;12.30;99.90;;;;;;4972797;28;20396;-60
2022/10/14 08:23:55;;;;;;;11.65;6.43;;;12.30;99.90;;;;;;4974837;28;20027;-60
2022/10/14 08:26:51;;;;;;;14.25;6.00;;;12.30;99.90;;;;;;4973890;28;20153;-59
2022/10/14 08:29:17;;;;;;;7.93;4.82;;;12.30;99.90;;;;;;4966014;28;20302;-59
2022/10/14 08:31:43;;;;;;;10.52;6.22;;;12.30;99.90;;;;;;4975372;28;20030;-59
2022/10/14 08:34:10;;;;;;;11.95;5.70;;;12.30;99.90;;;;;;4973723;28;20027;-59
2022/10/14 08:36:39;;;;;;;9.38;5.28;;;12.30;99.90;;;;;;4975245;28;20039;-59
2022/10/14 08:39:05;;;;;;;10.93;6.32;;;12.40;99.90;;;;;;4974732;28;20026;-58
2022/10/14 08:41:38;;;;;;;11.95;6.38;;;12.40;99.90;;;;;;4973851;28;20034;-59
2022/10/14 08:44:15;;;;;;;12.65;6.20;;;12.60;99.90;;;;;;4984176;28;20129;-59
2022/10/14 08:46:56;;;;;;;10.98;5.20;;;12.60;99.90;;;;;;4985938;28;20100;-59
2022/10/14 08:49:30;;;;;;;9.77;5.78;;;12.70;99.90;;;;;;4990589;28;20137;-59
2022/10/14 08:52:40;;;;;;;13.32;5.47;;;12.70;99.90;;;;;;4983114;28;20150;-58
2022/10/14 08:55:25;;;;;;;11.52;6.03;;;12.60;99.90;;;;;;4925558;29;20044;-59
2022/10/14 08:57:59;;;;;;;14.65;5.90;;;12.70;99.90;;;;;;4915020;29;20048;-59
2022/10/14 09:00:27;;;;;;;10.80;6.05;;;12.50;99.90;;;;;;4926572;29;20031;-60
2022/10/14 09:02:53;;;;;;;8.02;5.30;;;12.50;99.90;;;;;;4909311;29;20032;-60
2022/10/14 09:05:24;;;;;;;11.48;6.53;;;12.30;99.90;;;;;;4918876;29;20055;-60
2022/10/14 09:07:54;;;;;;;11.90;5.97;;;12.30;99.90;;;;;;4916809;29;20516;-60
2022/10/14 09:10:36;;;;;;;8.88;5.03;;;12.60;99.90;;;;;;4929455;29;20433;-60
2022/10/14 09:13:17;;;;;;;11.13;5.38;;;12.60;99.90;;;;;;4919041;29;20516;-60
2022/10/14 09:15:48;;;;;;;10.77;5.43;;;12.90;99.90;;;;;;4908155;29;20072;-60
2022/10/14 09:18:34;;;;;;;10.65;4.63;;;13.10;99.90;;;;;;4924973;29;20156;-60
2022/10/14 09:21:01;;;;;;;7.82;4.68;;;13.40;99.90;;;;;;4918363;29;20095;-60
2022/10/14 09:23:30;;;;;;;10.20;6.18;;;13.50;99.90;;;;;;4919416;29;20409;-59
2022/10/14 09:26:10;;;;;;;11.07;5.10;;;13.80;99.90;;;;;;4917820;29;20028;-60
2022/10/14 09:28:39;;;;;;;10.55;4.82;;;14.10;99.90;;;;;;4910002;29;20036;-59
2022/10/14 09:31:09;;;;;;;10.52;4.85;;;14.30;99.90;;;;;;4971697;28;20038;-59
2022/10/14 09:33:38;;;;;;;7.00;5.03;;;14.40;99.90;;;;;;4982666;28;20024;-59
2022/10/14 09:36:08;;;;;;;7.68;4.85;;;14.40;99.90;;;;;;4973937;28;20502;-59
2022/10/14 09:38:35;;;;;;;6.75;4.40;;;14.50;99.90;;;;;;4987402;28;20041;-60
2022/10/14 09:41:01;;;;;;;9.02;5.00;;;14.60;99.90;;;;;;4991002;28;20036;-60
2022/10/14 09:43:28;;;;;;;9.88;4.60;;;14.70;99.90;;;;;;4987035;28;20058;-60
2022/10/14 09:45:58;;;;;;;9.15;4.25;;;14.80;99.90;;;;;;4990907;28;20022;-60
2022/10/14 09:48:56;;;;;;;6.63;4.07;;;14.80;99.90;;;;;;4990717;28;20058;-60
2022/10/14 09:51:32;;;;;;;9.20;4.55;;;15.00;99.90;;;;;;4958840;28;20056;-60
2022/10/14 09:54:02;;;;;;;7.45;4.25;;;15.10;99.90;;;;;;4988704;28;20389;-60
2022/10/14 09:56:34;;;;;;;7.07;4.88;;;15.20;99.90;;;;;;4989091;28;20122;-60
2022/10/14 09:59:01;;;;;;;7.88;5.13;;;15.30;99.90;;;;;;4985833;28;20025;-59
2022/10/14 10:01:39;;;;;;;8.70;4.93;;;15.30;99.90;;;;;;4988685;28;20053;-59
2022/10/14 10:04:35;;;;;;;8.18;4.95;;;15.40;99.90;;;;;;4983019;28;20483;-59
2022/10/14 10:07:06;;;;;;;9.35;4.90;;;15.50;99.90;;;;;;4977734;28;20035;-59
2022/10/14 10:09:32;;;;;;;8.98;4.18;;;15.40;99.90;;;;;;4969522;28;20031;-59
2022/10/14 10:11:59;;;;;;;7.07;4.47;;;15.50;99.90;;;;;;4985861;28;20026;-60
2022/10/14 10:14:28;;;;;;;7.85;4.25;;;15.50;99.90;;;;;;4990116;28;20030;-59
2022/10/14 10:17:06;;;;;;;9.18;4.13;;;15.80;99.90;;;;;;4986041;28;20063;-59
2022/10/14 10:19:33;;;;;;;7.20;4.45;;;16.10;99.90;;;;;;4985600;28;20038;-59
2022/10/14 10:22:18;;;;;;;8.43;5.30;;;16.30;99.90;;;;;;4989873;28;20130;-61
2022/10/14 10:24:44;;;;;;;6.38;3.83;;;16.50;99.90;;;;;;4988398;28;20112;-60
2022/10/14 10:27:19;;;;;;;9.32;4.32;;;16.60;99.90;;;;;;4976799;28;20035;-59
2022/10/14 10:29:45;;;;;;;12.23;4.65;;;16.60;99.90;;;;;;4985932;28;20030;-59
2022/10/14 10:32:15;;;;;;;15.63;4.45;;;16.60;99.90;;;;;;4982887;28;20035;-59
2022/10/14 10:34:55;;;;;;;11.18;3.80;;;16.60;99.90;;;;;;4988065;28;20030;-59
2022/10/14 10:37:23;;;;;;;14.18;4.90;;;16.50;99.90;;;;;;4979530;28;20116;-59
2022/10/14 10:40:07;;;;;;;7.30;4.10;;;16.70;99.90;;;;;;4987774;28;20122;-60
2022/10/14 10:42:58;;;;;;;8.32;4.18;;;16.70;99.90;;;;;;4981121;28;20046;-60
2022/10/14 10:45:37;;;;;;;16.88;5.03;;;16.70;99.90;;;;;;4975275;28;20037;-60
2022/10/14 10:48:22;;;;;;;8.25;4.10;;;16.70;99.90;;;;;;4973838;28;20062;-60
2022/10/14 10:50:57;;;;;;;8.38;4.50;;;16.70;99.90;;;;;;4962063;28;20375;-60
2022/10/14 10:53:44;;;;;;;7.43;4.10;;;16.60;99.90;;;;;;4984176;28;20472;-60
2022/10/14 10:56:49;;;;;;;9.27;4.50;;;16.50;99.90;;;;;;4975688;28;20511;-60
2022/10/14 10:59:30;;;;;;;5.50;3.40;;;16.50;99.90;;;;;;4972835;28;20041;-61
2022/10/14 11:02:11;;;;;;;10.30;4.18;;;16.60;99.90;;;;;;4969628;28;20387;-59
2022/10/14 11:04:46;;;;;;;12.63;4.70;;;16.60;99.90;;;;;;4964582;28;20110;-59
2022/10/14 11:13:08;;;;;;;5.07;3.80;;;16.70;99.90;;;;;;4968356;28;20081;-59
2022/10/14 11:15:34;;;;;;;8.13;3.65;;;16.70;99.90;;;;;;4967329;28;20035;-59
2022/10/14 11:18:10;;;;;;;6.43;2.92;;;16.60;99.90;;;;;;4970156;28;20030;-60
2022/10/14 11:20:54;;;;;;;11.05;3.20;;;16.50;99.90;;;;;;4969527;28;20038;-61
2022/10/14 11:23:41;;;;;;;4.82;2.65;;;16.60;99.90;;;;;;4974108;28;20402;-60
2022/10/14 11:26:19;;;;;;;5.10;2.08;;;16.60;99.90;;;;;;4973438;28;20066;-59
2022/10/14 11:29:23;;;;;;;2.65;2.30;;;16.50;99.90;;;;;;4969266;28;20122;-59
2022/10/14 11:32:03;;;;;;;1.95;1.13;;;16.40;99.90;;;;;;4966243;28;20531;-58
2022/10/14 11:34:42;;;;;;;3.40;1.25;;;16.20;99.90;;;;;;4968606;28;20096;-60
2022/10/14 11:37:25;;;;;;;1.73;1.13;;;16.10;99.90;;;;;;4968580;28;20074;-60
2022/10/14 11:39:57;;;;;;;4.22;1.30;;;15.90;99.90;;;;;;4973297;28;20046;-61
2022/10/14 11:42:29;;;;;;;5.93;0.98;;;15.90;99.90;;;;;;4962814;28;20105;-61
2022/10/14 11:45:09;;;;;;;4.15;2.35;;;15.90;99.90;;;;;;4965268;28;20118;-60
2022/10/14 11:47:38;;;;;;;11.32;2.53;;;15.80;99.90;;;;;;4970931;28;20034;-59
2022/10/14 11:50:22;;;;;;;4.95;1.95;;;15.80;99.90;;;;;;4978905;28;20031;-60
2022/10/14 11:53:00;;;;;;;3.70;1.52;;;15.90;99.90;;;;;;4966872;28;20027;-60
2022/10/14 11:55:33;;;;;;;4.72;1.40;;;16.10;99.90;;;;;;4971964;28;20085;-60
2022/10/14 11:58:07;;;;;;;7.70;2.50;;;16.30;99.90;;;;;;4973172;28;20503;-59
2022/10/14 12:00:53;;;;;;;4.90;1.60;;;16.60;99.90;;;;;;4969863;28;20026;-59
2022/10/14 12:03:34;;;;;;;9.85;2.22;;;16.80;99.90;;;;;;4978284;28;20109;-59
2022/10/14 12:06:11;;;;;;;5.70;2.13;;;17.00;99.90;;;;;;4977278;28;20052;-60
2022/10/14 12:08:55;;;;;;;4.90;1.88;;;17.10;99.90;;;;;;4972626;28;20121;-59
2022/10/14 12:11:38;;;;;;;4.35;1.58;;;17.10;99.90;;;;;;4967840;28;20114;-59
2022/10/14 12:14:13;;;;;;;2.13;1.58;;;17.20;99.90;;;;;;4968090;28;20038;-59
2022/10/14 12:16:41;;;;;;;4.70;1.42;;;17.30;99.90;;;;;;4970887;28;20062;-59
2022/10/14 12:19:12;;;;;;;1.63;1.35;;;17.30;99.90;;;;;;4971642;28;20058;-59
2022/10/14 12:22:14;;;;;;;4.35;1.70;;;17.30;99.90;;;;;;4959468;28;20097;-60
2022/10/14 12:24:52;;;;;;;1.30;0.90;;;17.50;99.90;;;;;;4973106;28;20434;-59
2022/10/14 12:27:20;;;;;;;1.95;0.80;;;17.40;99.90;;;;;;4967410;28;20058;-59
2022/10/14 12:29:51;;;;;;;1.65;0.50;;;17.50;99.90;;;;;;4974468;28;20105;-59
2022/10/14 12:32:20;;;;;;;2.67;0.80;;;17.50;99.90;;;;;;4969059;28;20034;-60
2022/10/14 12:34:48;;;;;;;0.65;0.63;;;17.40;99.90;;;;;;4973291;28;20030;-60
2022/10/14 12:37:23;;;;;;;1.08;0.70;;;17.30;99.90;;;;;;4972081;28;20046;-60
2022/10/14 12:39:53;;;;;;;3.53;0.77;;;17.10;99.90;;;;;;4970369;28;20065;-60
2022/10/14 12:42:20;;;;;;;0.82;0.43;;;16.80;99.90;;;;;;4975703;28;20030;-60
2022/10/14 12:44:47;;;;;;;2.85;1.27;;;16.60;99.90;;;;;;4974401;28;20034;-59
2022/10/14 12:47:31;;;;;;;2.08;0.93;;;16.60;99.90;;;;;;4975249;28;20482;-59
2022/10/14 12:50:03;;;;;;;1.67;0.75;;;16.50;99.90;;;;;;4985559;28;20038;-59
2022/10/14 12:52:32;;;;;;;1.67;0.68;;;16.50;99.90;;;;;;4976076;28;20129;-60
2022/10/14 12:55:03;;;;;;;1.08;0.60;;;16.40;99.90;;;;;;4982557;28;20033;-60
2022/10/14 12:57:32;;;;;;;1.65;0.57;;;16.40;99.90;;;;;;4967664;28;20045;-60
2022/10/14 13:00:25;;;;;;;3.33;0.70;;;16.40;99.90;;;;;;4978721;28;20054;-60
2022/10/14 13:03:00;;;;;;;0.82;0.60;;;16.50;99.90;;;;;;4973354;28;20521;-60
2022/10/14 13:05:43;;;;;;;0.82;0.65;;;16.50;99.90;;;;;;4974229;28;20387;-59